Terminal Aerodrome Forecast
Issued by NWS

Home | Current Version | Previous Version | Text Only | Print | Product List | Glossary On
Versions: 1 2 3 4 5 6 7 8 9 10 11 12 13
000
FTUS44 KSJT 041732
TAFBBD
TAF
KBBD 041732Z 0418/0518 34009KT 4SM -DZ BR OVC007
     FM042000 35008KT 6SM -DZ BR OVC015
     FM050100 35007KT 5SM -SHRA BR OVC012
     FM050600 01007KT 4SM -SHRA OVC008
      AMD NOT SKED=

USA.gov is the U.S. government's official web portal to all federal, state and local government web resources and services.